createdAt,value
2019-04-29T00:02:35.043Z,78.12
2019-04-29T00:05:38.668Z,78.04
2019-04-29T00:08:42.242Z,78.10
2019-04-29T00:11:45.989Z,78.70
2019-04-29T00:15:00.166Z,78.82
2019-04-29T00:18:05.437Z,78.46
2019-04-29T00:21:09.133Z,79.03
2019-04-29T00:24:12.725Z,78.98
2019-04-29T00:27:16.280Z,79.27
2019-04-29T00:30:21.459Z,79.71
2019-04-29T00:33:24.962Z,80.24
2019-04-29T00:36:30.149Z,80.42
2019-04-29T00:39:53.372Z,80.65
2019-04-29T00:43:01.855Z,80.34
2019-04-29T00:46:06.048Z,80.09
2019-04-29T00:49:09.581Z,80.14
2019-04-29T00:52:13.160Z,80.51
2019-04-29T00:55:20.866Z,81.01
2019-04-29T00:58:24.387Z,81.37
2019-04-29T01:01:27.897Z,81.35
2019-04-29T01:04:31.456Z,81.05
2019-04-29T01:07:36.707Z,81.27
2019-04-29T01:10:41.864Z,81.54
2019-04-29T01:13:45.453Z,81.57
2019-04-29T01:16:50.596Z,81.57
2019-04-29T01:19:54.215Z,81.59
2019-04-29T01:22:57.813Z,81.44
2019-04-29T01:26:03.137Z,81.75
2019-04-29T01:29:08.523Z,82.42
2019-04-29T01:32:12.128Z,82.61
2019-04-29T01:35:15.650Z,82.24
2019-04-29T01:38:19.383Z,82.05
2019-04-29T01:41:39.637Z,81.97
2019-04-29T01:44:44.691Z,82.23
2019-04-29T01:47:48.250Z,82.26
2019-04-29T01:50:51.861Z,82.61
2019-04-29T01:53:55.469Z,82.48
2019-04-29T01:56:59.042Z,82.58
2019-04-29T02:00:05.546Z,82.59
2019-04-29T02:03:12.214Z,82.63
2019-04-29T02:06:15.872Z,82.27
2019-04-29T02:09:39.032Z,82.09
2019-04-29T02:12:42.566Z,82.40
2019-04-29T02:15:46.106Z,82.78
2019-04-29T02:18:52.524Z,82.84
2019-04-29T02:22:09.366Z,82.79
2019-04-29T02:25:16.076Z,82.78
2019-04-29T02:28:19.603Z,83.05
2019-04-29T02:31:38.255Z,82.68
2019-04-29T02:34:41.856Z,81.97
2019-04-29T02:37:45.601Z,82.48
2019-04-29T02:41:06.999Z,82.64
2019-04-29T02:44:11.982Z,83.08
2019-04-29T02:47:15.511Z,83.27
2019-04-29T02:50:20.842Z,83.44
2019-04-29T02:53:24.377Z,83.30
2019-04-29T02:56:28.206Z,83.46
2019-04-29T02:59:48.537Z,83.87
2019-04-29T03:02:53.825Z,83.78
2019-04-29T03:05:59.152Z,83.71
2019-04-29T03:09:04.795Z,83.72
2019-04-29T03:12:08.341Z,83.70
2019-04-29T03:15:12.759Z,83.73
2019-04-29T03:18:19.633Z,83.17
2019-04-29T03:21:27.574Z,83.37
2019-04-29T03:24:31.101Z,83.86
2019-04-29T03:27:36.363Z,83.75
2019-04-29T03:30:39.944Z,83.67
2019-04-29T03:33:43.477Z,83.80
2019-04-29T03:36:46.991Z,83.68
2019-04-29T03:39:50.601Z,83.28
2019-04-29T03:42:54.231Z,83.52
2019-04-29T03:45:57.737Z,83.75
2019-04-29T03:49:01.269Z,83.54
2019-04-29T03:52:06.381Z,83.70
2019-04-29T03:55:11.542Z,83.60
2019-04-29T03:58:15.065Z,83.67
2019-04-29T04:01:20.229Z,83.25
2019-04-29T04:04:46.020Z,82.89
2019-04-29T04:07:51.256Z,83.17
2019-04-29T04:10:54.817Z,83.01
2019-04-29T04:13:58.337Z,82.86
2019-04-29T04:17:03.768Z,82.68
2019-04-29T04:20:09.233Z,82.46
2019-04-29T04:23:12.919Z,82.80
2019-04-29T04:26:16.443Z,82.50
2019-04-29T04:29:23.092Z,82.40
2019-04-29T04:32:26.608Z,82.40
2019-04-29T04:35:30.127Z,82.39
2019-04-29T04:38:33.832Z,82.18
2019-04-29T04:41:37.415Z,82.18
2019-04-29T04:44:51.900Z,81.52
2019-04-29T04:47:55.463Z,81.72
2019-04-29T04:50:58.997Z,81.70
2019-04-29T04:54:02.508Z,81.60
2019-04-29T04:57:06.035Z,81.58
2019-04-29T05:00:27.421Z,81.42
2019-04-29T05:03:30.947Z,81.48
2019-04-29T05:06:34.491Z,81.12
2019-04-29T05:09:37.997Z,81.04
2019-04-29T05:12:41.533Z,81.38
2019-04-29T05:15:46.725Z,81.40
2019-04-29T05:18:50.257Z,81.20
2019-04-29T05:21:54.239Z,80.65
2019-04-29T05:24:57.755Z,80.52
2019-04-29T05:28:01.498Z,79.70
2019-04-29T05:31:05.025Z,79.38
2019-04-29T05:34:08.532Z,78.73
2019-04-29T05:37:16.393Z,78.70
2019-04-29T05:40:39.963Z,78.94
2019-04-29T05:43:47.913Z,79.53
2019-04-29T05:46:55.673Z,78.81
2019-04-29T05:50:19.174Z,78.29
2019-04-29T05:53:24.343Z,77.49
2019-04-29T05:56:27.944Z,77.26
2019-04-29T05:59:31.448Z,77.74
2019-04-29T06:02:38.690Z,76.68
2019-04-29T06:05:40.226Z,76.83
2019-04-29T06:08:43.774Z,76.52
2019-04-29T06:11:47.548Z,76.41
2019-04-29T06:14:51.067Z,75.58
2019-04-29T06:17:54.615Z,75.26
2019-04-29T06:21:08.880Z,74.85
2019-04-29T06:24:04.458Z,75.00
2019-04-29T06:27:08.679Z,75.00
2019-04-29T06:30:12.545Z,74.67
2019-04-29T06:33:16.097Z,74.79
2019-04-29T06:36:19.628Z,74.39
2019-04-29T06:39:23.139Z,74.95
2019-04-29T06:42:26.655Z,74.14
2019-04-29T06:45:30.193Z,74.25
2019-04-29T06:48:33.707Z,74.64
2019-04-29T06:51:37.253Z,75.31
2019-04-29T06:54:40.888Z,76.73
2019-04-29T06:57:44.431Z,77.69
2019-04-29T07:00:50.752Z,78.60
2019-04-29T07:03:55.756Z,78.99
2019-04-29T07:06:58.555Z,77.87
2019-04-29T07:10:02.080Z,78.68
2019-04-29T07:13:05.839Z,78.72
2019-04-29T07:16:09.394Z,78.29
2019-04-29T07:19:12.888Z,79.24
2019-04-29T07:22:16.433Z,79.23
2019-04-29T07:25:24.682Z,79.03
2019-04-29T07:28:27.176Z,79.89
2019-04-29T07:31:33.200Z,79.82
2019-04-29T07:34:39.253Z,80.44
2019-04-29T07:37:41.473Z,78.90
2019-04-29T07:40:45.613Z,78.92
2019-04-29T07:43:49.422Z,79.10
2019-04-29T07:46:58.319Z,79.31
2019-04-29T07:49:59.846Z,79.51
2019-04-29T07:53:03.622Z,79.92
2019-04-29T07:56:08.231Z,80.34
2019-04-29T07:59:11.829Z,79.99
2019-04-29T08:02:15.532Z,79.95
2019-04-29T08:05:19.030Z,79.55
2019-04-29T08:08:24.002Z,80.08
2019-04-29T08:11:27.530Z,80.64
2019-04-29T08:14:33.230Z,80.06
2019-04-29T08:17:37.526Z,79.75
2019-04-29T08:20:41.435Z,80.31
2019-04-29T08:23:45.158Z,79.61
2019-04-29T08:26:48.748Z,80.59
2019-04-29T08:29:52.265Z,80.23
2019-04-29T08:32:55.830Z,80.41
2019-04-29T08:35:59.342Z,80.39
2019-04-29T08:39:08.860Z,80.05
2019-04-29T08:42:09.848Z,80.56
2019-04-29T08:45:34.772Z,80.45
2019-04-29T08:48:39.011Z,80.40
2019-04-29T08:51:42.528Z,80.24
2019-04-29T08:54:46.106Z,79.45
2019-04-29T08:57:49.718Z,79.35
2019-04-29T09:00:55.683Z,79.57
2019-04-29T09:03:59.166Z,79.74
2019-04-29T09:07:12.393Z,80.17
2019-04-29T09:10:10.078Z,79.78
2019-04-29T09:13:13.691Z,79.91
2019-04-29T09:16:17.242Z,81.52
2019-04-29T09:19:20.785Z,80.55
2019-04-29T09:22:25.946Z,81.01
2019-04-29T09:25:31.135Z,81.11
2019-04-29T09:28:34.769Z,81.19
2019-04-29T09:31:38.379Z,81.65
2019-04-29T09:34:41.940Z,81.91
2019-04-29T09:37:45.484Z,81.64
2019-04-29T09:40:59.803Z,81.75
2019-04-29T09:44:05.656Z,81.63
2019-04-29T09:47:10.337Z,81.91
2019-04-29T09:50:13.957Z,82.66
2019-04-29T09:53:17.540Z,82.29
2019-04-29T09:56:21.055Z,83.60
2019-04-29T09:59:26.205Z,83.93
2019-04-29T10:02:33.067Z,84.35
2019-04-29T10:05:44.574Z,85.13
2019-04-29T10:08:48.110Z,85.45
2019-04-29T10:11:51.632Z,85.24
2019-04-29T10:14:55.162Z,85.95
2019-04-29T10:18:00.320Z,86.84
2019-04-29T10:21:21.573Z,86.56
2019-04-29T10:24:24.299Z,87.13
2019-04-29T10:27:27.893Z,87.36
2019-04-29T10:30:32.544Z,87.24
2019-04-29T10:33:36.197Z,87.74
2019-04-29T10:36:39.811Z,87.02
2019-04-29T10:39:44.985Z,87.71
2019-04-29T10:42:50.230Z,87.40
2019-04-29T10:46:11.919Z,88.07
2019-04-29T10:49:17.182Z,87.43
2019-04-29T10:52:21.435Z,87.98
2019-04-29T10:55:29.486Z,88.39
2019-04-29T10:58:35.494Z,88.73
2019-04-29T11:02:20.270Z,89.04
2019-04-29T11:05:28.508Z,89.34
2019-04-29T11:08:38.111Z,89.69
2019-04-29T11:11:43.463Z,89.48
2019-04-29T11:14:47.478Z,89.74
2019-04-29T11:17:58.936Z,90.02
2019-04-29T11:20:57.835Z,89.59
2019-04-29T11:24:15.407Z,90.07
2019-04-29T11:27:23.539Z,90.33
2019-04-29T11:30:34.843Z,90.54
2019-04-29T11:33:43.587Z,90.01
2019-04-29T11:36:47.339Z,90.65
2019-04-29T11:39:51.747Z,90.83
2019-04-29T11:42:55.456Z,90.52
2019-04-29T11:45:59.187Z,90.51
2019-04-29T11:49:05.027Z,90.24
2019-04-29T11:52:10.235Z,90.71
2019-04-29T11:55:18.594Z,90.59
2019-04-29T11:58:36.228Z,90.51
2019-04-29T12:01:50.847Z,90.76
2019-04-29T12:04:51.510Z,90.22
2019-04-29T12:07:55.759Z,89.99
2019-04-29T12:11:06.912Z,90.03
2019-04-29T12:14:13.312Z,90.25
2019-04-29T12:17:18.648Z,90.01
2019-04-29T12:20:23.943Z,90.47
2019-04-29T12:23:27.511Z,90.43
2019-04-29T12:26:35.666Z,90.40
2019-04-29T12:29:37.011Z,90.22
2019-04-29T12:32:43.621Z,90.38
2019-04-29T12:35:51.915Z,90.13
2019-04-29T12:38:58.627Z,90.38
2019-04-29T12:42:12.899Z,90.33
2019-04-29T12:45:19.422Z,90.65
2019-04-29T12:48:24.913Z,90.50
2019-04-29T12:51:29.012Z,90.60
2019-04-29T12:54:32.639Z,90.37
2019-04-29T12:57:36.409Z,90.25
2019-04-29T13:00:47.276Z,90.17
2019-04-29T13:03:47.743Z,90.09
2019-04-29T13:07:09.394Z,89.64
2019-04-29T13:10:33.505Z,89.52
2019-04-29T13:13:37.521Z,89.44
2019-04-29T13:16:43.102Z,88.79
2019-04-29T13:20:07.306Z,89.05
2019-04-29T13:23:19.486Z,89.01
2019-04-29T13:26:27.824Z,89.41
2019-04-29T13:29:27.245Z,88.97
2019-04-29T13:32:35.551Z,89.14
2019-04-29T13:35:37.221Z,89.03
2019-04-29T13:38:41.111Z,89.21
2019-04-29T13:41:57.240Z,89.29
2019-04-29T13:45:07.530Z,89.28
2019-04-29T13:48:07.234Z,89.11
2019-04-29T13:51:35.723Z,89.36
2019-04-29T13:54:31.815Z,89.30
2019-04-29T13:57:35.639Z,88.76
2019-04-29T14:00:46.747Z,88.98
2019-04-29T14:03:54.406Z,89.19
2019-04-29T14:06:59.618Z,89.45
2019-04-29T14:10:03.719Z,89.54
2019-04-29T14:13:13.288Z,89.17
2019-04-29T14:16:13.304Z,89.54
2019-04-29T14:19:20.598Z,89.81
2019-04-29T14:22:22.859Z,90.10
2019-04-29T14:25:26.543Z,90.39
2019-04-29T14:28:30.124Z,90.19
2019-04-29T14:31:33.729Z,90.82
2019-04-29T14:34:53.963Z,90.95
2019-04-29T14:38:04.394Z,91.23
2019-04-29T14:41:02.775Z,90.98
2019-04-29T14:44:26.508Z,90.80
2019-04-29T14:47:43.303Z,90.80
2019-04-29T14:50:49.606Z,90.48
2019-04-29T14:53:57.147Z,90.35
2019-04-29T14:57:08.920Z,90.53
2019-04-29T15:00:19.933Z,90.58
2019-04-29T15:03:28.595Z,90.37
2019-04-29T15:06:32.605Z,90.60
2019-04-29T15:09:46.726Z,90.71
2019-04-29T15:13:01.512Z,90.49
2019-04-29T15:16:09.537Z,89.94
2019-04-29T15:19:31.899Z,89.72
2019-04-29T15:22:40.135Z,89.71
2019-04-29T15:25:46.566Z,89.61
2019-04-29T15:28:53.160Z,89.42
2019-04-29T15:31:56.702Z,89.79
2019-04-29T15:35:00.532Z,89.86
2019-04-29T15:38:04.355Z,90.03
2019-04-29T15:41:08.042Z,90.67
2019-04-29T15:44:18.890Z,90.93
2019-04-29T15:47:16.925Z,91.04
2019-04-29T15:50:20.615Z,90.94
2019-04-29T15:53:24.203Z,91.32
2019-04-29T15:56:33.367Z,91.29
2019-04-29T15:59:47.814Z,91.31
2019-04-29T16:02:41.174Z,91.10
2019-04-29T16:06:04.370Z,90.76
2019-04-29T16:08:59.057Z,91.30
2019-04-29T16:12:15.448Z,91.21
2019-04-29T16:15:19.114Z,90.93
2019-04-29T16:18:25.774Z,90.95
2019-04-29T16:21:32.215Z,90.31
2019-04-29T16:24:38.312Z,90.08
2019-04-29T16:27:48.907Z,90.36
2019-04-29T16:30:50.918Z,90.45
2019-04-29T16:33:55.815Z,90.46
2019-04-29T16:37:01.564Z,90.99
2019-04-29T16:40:09.402Z,90.77
2019-04-29T16:43:27.508Z,90.85
2019-04-29T16:46:37.212Z,91.02
2019-04-29T16:49:36.485Z,90.61
2019-04-29T16:52:44.588Z,90.64
2019-04-29T16:55:48.259Z,90.59
2019-04-29T16:58:52.192Z,90.18
2019-04-29T17:01:55.951Z,90.46
2019-04-29T17:04:59.861Z,90.25
2019-04-29T17:08:09.329Z,90.35
2019-04-29T17:11:17.472Z,90.32
2019-04-29T17:14:17.693Z,90.13
2019-04-29T17:17:29.195Z,90.47
2019-04-29T17:20:29.736Z,91.33
2019-04-29T17:23:36.426Z,91.21
2019-04-29T17:26:45.196Z,91.26
2019-04-29T17:29:55.555Z,91.53
2019-04-29T17:33:04.300Z,91.30
2019-04-29T17:36:10.512Z,91.37
2019-04-29T17:39:16.507Z,91.39
2019-04-29T17:42:24.994Z,91.62
2019-04-29T17:45:34.632Z,91.55
2019-04-29T17:48:48.657Z,91.38
2019-04-29T17:51:51.436Z,91.43
2019-04-29T17:55:15.078Z,91.89
2019-04-29T17:58:21.688Z,92.36
2019-04-29T18:01:31.999Z,93.16
2019-04-29T18:04:40.804Z,93.43
2019-04-29T18:07:57.873Z,93.49
2019-04-29T18:11:04.696Z,93.85
2019-04-29T18:14:08.652Z,93.54
2019-04-29T18:17:24.238Z,93.89
2019-04-29T18:20:39.053Z,93.94
2019-04-29T18:23:56.776Z,93.21
2019-04-29T18:27:00.272Z,92.94
2019-04-29T18:30:07.177Z,93.42
2019-04-29T18:33:10.786Z,92.41
2019-04-29T18:36:23.629Z,93.04
2019-04-29T18:39:25.001Z,93.10
2019-04-29T18:42:27.219Z,92.70
2019-04-29T18:45:34.507Z,92.86
2019-04-29T18:48:36.426Z,92.90
2019-04-29T18:51:40.179Z,92.41
2019-04-29T18:54:45.020Z,92.72
2019-04-29T18:57:49.736Z,92.25
2019-04-29T19:00:56.072Z,92.19
2019-04-29T19:04:17.416Z,91.79
2019-04-29T19:07:21.551Z,91.95
2019-04-29T19:10:32.864Z,91.87
2019-04-29T19:13:31.013Z,91.86
2019-04-29T19:16:35.959Z,92.13
2019-04-29T19:19:41.410Z,92.12
2019-04-29T19:22:47.350Z,92.27
2019-04-29T19:25:50.256Z,92.43
2019-04-29T19:28:56.797Z,92.74
2019-04-29T19:32:00.451Z,92.72
2019-04-29T19:35:11.355Z,92.56
2019-04-29T19:38:15.823Z,92.76
2019-04-29T19:41:19.549Z,92.89
2019-04-29T19:44:26.532Z,92.97
2019-04-29T19:47:32.320Z,93.17
2019-04-29T19:50:36.894Z,93.18
2019-04-29T19:53:42.683Z,93.54
2019-04-29T19:56:45.791Z,93.68
2019-04-29T19:59:51.967Z,93.78
2019-04-29T20:02:56.812Z,93.92
2019-04-29T20:06:08.410Z,94.01
2019-04-29T20:09:17.218Z,94.06
2019-04-29T20:12:16.886Z,93.92
2019-04-29T20:15:19.450Z,93.89
2019-04-29T20:18:33.665Z,93.97
2019-04-29T20:21:42.718Z,94.31
2019-04-29T20:24:49.685Z,94.35
2019-04-29T20:28:04.802Z,94.34
2019-04-29T20:31:15.001Z,94.29
2019-04-29T20:34:02.539Z,94.50
2019-04-29T20:37:10.747Z,94.26
2019-04-29T20:40:12.265Z,94.33
2019-04-29T20:43:26.026Z,94.51
2019-04-29T20:46:40.127Z,94.50
2019-04-29T20:49:38.104Z,94.48
2019-04-29T20:52:45.514Z,94.44
2019-04-29T20:55:49.535Z,94.50
2019-04-29T20:58:55.010Z,94.62
2019-04-29T21:02:11.048Z,94.73
2019-04-29T21:05:06.497Z,94.69
2019-04-29T21:08:16.544Z,94.58
2019-04-29T21:11:22.072Z,94.57
2019-04-29T21:14:33.837Z,94.65
2019-04-29T21:17:35.462Z,94.47
2019-04-29T21:20:39.081Z,94.28
2019-04-29T21:23:42.647Z,94.28
2019-04-29T21:26:46.251Z,94.23
2019-04-29T21:29:49.917Z,94.18
2019-04-29T21:32:55.821Z,94.27
2019-04-29T21:36:06.838Z,94.36
2019-04-29T21:39:27.745Z,94.50
2019-04-29T21:42:37.155Z,94.48
2019-04-29T21:45:45.056Z,94.55
2019-04-29T21:48:49.234Z,94.45
2019-04-29T21:51:52.866Z,94.25
2019-04-29T21:54:57.033Z,93.91
2019-04-29T21:58:00.813Z,93.28
2019-04-29T22:01:05.426Z,92.87
2019-04-29T22:04:09.100Z,92.46
2019-04-29T22:11:28.849Z,90.96
2019-04-29T22:22:47.812Z,91.19
2019-04-29T22:25:51.362Z,88.37
2019-04-29T22:29:01.809Z,86.57
2019-04-29T22:32:00.531Z,86.37
2019-04-29T22:35:06.141Z,85.54
2019-04-29T22:38:12.684Z,85.55
2019-04-29T22:41:21.004Z,85.43
2019-04-29T22:44:25.931Z,85.78
2019-04-29T22:47:29.574Z,86.00
2019-04-29T22:50:33.756Z,85.01
2019-04-29T22:53:40.111Z,83.93
2019-04-29T22:56:45.842Z,82.00
2019-04-29T22:59:49.505Z,80.50
2019-04-29T23:02:53.135Z,80.86
2019-04-29T23:06:00.168Z,82.05
2019-04-29T23:09:01.975Z,83.06
2019-04-29T23:12:05.589Z,84.19
2019-04-29T23:15:09.606Z,84.12
2019-04-29T23:18:24.341Z,83.39
2019-04-29T23:21:23.081Z,82.68
2019-04-29T23:24:46.681Z,81.42
2019-04-29T23:27:52.725Z,80.94
2019-04-29T23:30:55.189Z,80.40
2019-04-29T23:33:58.740Z,78.98
2019-04-29T23:37:02.443Z,78.35
2019-04-29T23:40:06.745Z,78.17
2019-04-29T23:43:10.275Z,78.30
2019-04-29T23:46:15.974Z,78.88
2019-04-29T23:49:19.277Z,79.05
2019-04-29T23:52:22.955Z,78.44
2019-04-29T23:55:29.247Z,77.04
2019-04-29T23:58:39.624Z,76.37
